createdAt,value
2018-02-20T08:05:50.587Z,9.00
2018-02-20T08:11:29.545Z,7.77
2018-02-20T08:17:09.774Z,8.77
2018-02-20T08:25:41.903Z,10.00
2018-02-20T08:35:04.987Z,11.50
2018-02-20T08:37:34.559Z,12.43
2018-02-20T08:40:04.293Z,11.73
2018-02-20T08:42:32.700Z,11.20
2018-02-20T08:45:00.960Z,12.43
2018-02-20T08:47:28.999Z,13.55
2018-02-20T08:49:57.284Z,13.07
2018-02-20T08:52:25.830Z,13.60
2018-02-20T08:54:54.533Z,12.97
2018-02-20T08:57:22.471Z,13.10
2018-02-20T08:59:50.582Z,13.57
2018-02-20T09:02:18.900Z,13.77
2018-02-20T09:04:52.500Z,13.87
2018-02-20T09:07:20.699Z,13.97
2018-02-20T09:09:49.152Z,14.40
2018-02-20T09:12:17.615Z,14.07
2018-02-20T09:14:46.129Z,13.63
2018-02-20T09:17:14.856Z,13.73
2018-02-20T09:19:42.995Z,14.73
2018-02-20T09:22:11.414Z,14.20
2018-02-20T09:24:40.006Z,15.10
2018-02-20T09:27:09.095Z,14.60
2018-02-20T09:29:37.457Z,14.47
2018-02-20T09:32:05.983Z,14.90
2018-02-20T09:34:34.766Z,15.80
2018-02-20T09:37:02.914Z,15.23
2018-02-20T09:39:32.435Z,15.40
2018-02-20T09:42:01.671Z,15.40
2018-02-20T09:44:30.156Z,16.00
2018-02-20T09:46:58.624Z,16.20
2018-02-20T09:49:26.915Z,15.77
2018-02-20T09:51:54.794Z,15.90
2018-02-20T09:54:22.875Z,17.10
2018-02-20T09:56:51.674Z,15.87
2018-02-20T09:59:19.634Z,16.77
2018-02-20T10:01:48.474Z,18.10
2018-02-20T10:04:16.766Z,17.40
2018-02-20T10:06:53.234Z,17.83
2018-02-20T10:09:21.543Z,18.20
2018-02-20T10:11:52.303Z,18.87
2018-02-20T10:14:20.348Z,17.20
2018-02-20T10:16:48.975Z,18.67
2018-02-20T10:19:16.877Z,19.77
2018-02-20T10:21:44.958Z,19.20
2018-02-20T10:24:13.116Z,19.37
2018-02-20T10:26:41.313Z,19.10
2018-02-20T10:29:09.538Z,19.20
2018-02-20T10:31:37.624Z,18.87
2018-02-20T10:34:06.266Z,18.77
2018-02-20T10:36:35.004Z,18.27
2018-02-20T10:39:03.320Z,18.13
2018-02-20T10:41:31.559Z,18.50
2018-02-20T10:44:00.632Z,19.10
2018-02-20T10:46:29.293Z,19.50
2018-02-20T10:48:57.395Z,18.93
2018-02-20T10:51:25.432Z,19.50
2018-02-20T10:53:53.531Z,18.77
2018-02-20T10:56:21.612Z,18.57
2018-02-20T10:58:50.654Z,18.93
2018-02-20T11:01:19.630Z,19.75
2018-02-20T11:03:48.019Z,20.27
2018-02-20T11:58:23.243Z,18.97
2018-02-20T12:00:51.948Z,19.07
2018-02-20T12:03:20.494Z,19.67
2018-02-20T12:05:48.846Z,18.73
2018-02-20T12:08:17.026Z,20.13
2018-02-20T12:10:54.619Z,20.53
2018-02-20T12:13:23.114Z,20.23
2018-02-20T12:16:02.971Z,20.43
2018-02-20T12:18:31.459Z,19.70
2018-02-20T12:21:00.375Z,20.87
2018-02-20T12:23:28.676Z,19.30
2018-02-20T12:25:57.801Z,18.93
2018-02-20T12:28:27.149Z,20.00
2018-02-20T12:30:55.820Z,19.17
2018-02-20T12:33:24.262Z,20.17
2018-02-20T12:35:53.405Z,18.97
2018-02-20T12:38:22.250Z,19.40
2018-02-20T12:40:51.339Z,18.83
2018-02-20T12:43:20.655Z,19.43
2018-02-20T12:45:49.140Z,19.97
2018-02-20T12:48:18.092Z,18.73
2018-02-20T12:50:46.424Z,19.03
2018-02-20T12:53:14.723Z,18.60
2018-02-20T12:55:42.654Z,19.07
2018-02-20T12:58:11.010Z,19.37
2018-02-20T13:00:39.945Z,19.43
2018-02-20T13:03:08.694Z,21.17
2018-02-20T13:05:37.350Z,18.67
2018-02-20T13:08:07.067Z,18.83
2018-02-20T13:10:35.627Z,17.80
2018-02-20T13:13:05.468Z,19.10
2018-02-20T13:15:34.247Z,18.93
2018-02-20T13:18:14.192Z,18.20
2018-02-20T13:20:42.885Z,18.50
2018-02-20T13:23:20.158Z,18.40
2018-02-20T13:25:48.969Z,20.10
2018-02-20T13:28:32.200Z,18.93
2018-02-20T13:31:01.225Z,19.47
2018-02-20T13:33:34.219Z,19.67
2018-02-20T13:36:02.632Z,19.53
2018-02-20T13:41:11.318Z,20.80
2018-02-20T13:43:40.050Z,21.20
2018-02-20T13:46:08.425Z,22.43
2018-02-20T13:48:43.070Z,22.17
2018-02-20T13:51:11.417Z,24.33
2018-02-20T13:53:40.707Z,23.40
2018-02-20T13:56:26.968Z,23.07
2018-02-20T13:58:56.828Z,25.70
2018-02-20T14:01:24.971Z,24.87
2018-02-20T14:03:53.268Z,25.03
2018-02-20T14:06:22.761Z,23.57
2018-02-20T14:08:52.522Z,24.30
2018-02-20T14:11:21.081Z,24.73
2018-02-20T14:13:49.494Z,25.07
2018-02-20T14:16:17.729Z,23.80
2018-02-20T14:18:46.298Z,23.20
2018-02-20T14:21:14.886Z,23.87
2018-02-20T14:23:48.110Z,24.27
2018-02-20T14:26:16.568Z,24.80
2018-02-20T14:28:44.669Z,24.77
2018-02-20T14:31:13.022Z,23.70
2018-02-20T14:33:41.574Z,24.17
2018-02-20T14:36:10.781Z,24.53
2018-02-20T14:38:39.140Z,22.53
2018-02-20T14:41:08.490Z,23.73
2018-02-20T14:43:37.081Z,23.43
2018-02-20T14:46:11.970Z,23.07
2018-02-20T14:48:40.285Z,24.60
2018-02-20T14:51:24.964Z,24.93
2018-02-20T14:53:53.273Z,23.67
2018-02-20T14:56:22.516Z,24.50
2018-02-20T14:58:51.392Z,24.77
2018-02-20T15:01:27.380Z,25.53
2018-02-20T15:03:55.818Z,25.27
2018-02-20T15:06:33.719Z,23.97
2018-02-20T15:09:03.292Z,24.63
2018-02-20T15:11:40.367Z,24.53
2018-02-20T15:14:09.052Z,25.10
2018-02-20T15:16:37.678Z,23.90
2018-02-20T15:19:06.019Z,25.47
2018-02-20T15:21:34.287Z,24.60
2018-02-20T15:24:04.390Z,23.43
2018-02-20T15:26:32.442Z,25.23
2018-02-20T15:29:00.910Z,25.70
2018-02-20T15:31:29.233Z,26.27
2018-02-20T15:33:57.754Z,26.03
2018-02-20T15:36:26.215Z,26.17
2018-02-20T15:38:54.687Z,25.57
2018-02-20T15:41:23.005Z,26.03
2018-02-20T15:43:52.248Z,24.20
2018-02-20T15:46:21.045Z,26.90
2018-02-20T15:48:49.204Z,27.53
2018-02-20T15:51:17.685Z,26.30
2018-02-20T15:53:46.859Z,26.17
2018-02-20T15:56:15.181Z,26.57
2018-02-20T15:58:43.682Z,26.73
2018-02-20T16:01:12.244Z,27.07
2018-02-20T16:03:46.962Z,26.57
2018-02-20T16:06:15.772Z,26.20
2018-02-20T16:08:44.830Z,25.87
2018-02-20T16:11:13.689Z,26.20
2018-02-20T16:13:45.296Z,25.53
2018-02-20T16:16:14.136Z,25.70
